sensor_id;sensor_type;location;lat;lon;timestamp;temperature;humidity
8736;DHT22;4404;49.308;12.178;2022-09-02T00:04:05;15.30;98.00
8736;DHT22;4404;49.308;12.178;2022-09-02T00:10:10;15.10;98.40
8736;DHT22;4404;49.308;12.178;2022-09-02T00:16:13;15.00;98.50
8736;DHT22;4404;49.308;12.178;2022-09-02T00:22:16;14.90;98.20
8736;DHT22;4404;49.308;12.178;2022-09-02T00:28:20;14.80;99.00
8736;DHT22;4404;49.308;12.178;2022-09-02T00:34:23;14.70;98.90
8736;DHT22;4404;49.308;12.178;2022-09-02T00:40:26;14.60;99.50
8736;DHT22;4404;49.308;12.178;2022-09-02T00:46:32;14.60;99.80
8736;DHT22;4404;49.308;12.178;2022-09-02T00:52:37;14.50;99.60
8736;DHT22;4404;49.308;12.178;2022-09-02T00:58:41;14.40;99.50
8736;DHT22;4404;49.308;12.178;2022-09-02T01:04:45;14.40;99.90
8736;DHT22;4404;49.308;12.178;2022-09-02T01:10:47;14.30;99.90
8736;DHT22;4404;49.308;12.178;2022-09-02T01:16:52;14.30;99.90
8736;DHT22;4404;49.308;12.178;2022-09-02T01:22:58;14.20;99.90
8736;DHT22;4404;49.308;12.178;2022-09-02T01:29:01;14.20;99.90
8736;DHT22;4404;49.308;12.178;2022-09-02T01:35:05;14.10;99.90
8736;DHT22;4404;49.308;12.178;2022-09-02T01:41:09;14.20;99.90
8736;DHT22;4404;49.308;12.178;2022-09-02T01:47:12;14.10;99.90
8736;DHT22;4404;49.308;12.178;2022-09-02T01:53:17;14.10;99.90
8736;DHT22;4404;49.308;12.178;2022-09-02T01:59:21;14.00;99.90
8736;DHT22;4404;49.308;12.178;2022-09-02T02:05:24;14.00;99.90
8736;DHT22;4404;49.308;12.178;2022-09-02T02:11:26;13.90;99.90
8736;DHT22;4404;49.308;12.178;2022-09-02T02:17:30;14.00;99.90
8736;DHT22;4404;49.308;12.178;2022-09-02T02:23:32;13.90;99.90
8736;DHT22;4404;49.308;12.178;2022-09-02T02:29:35;13.80;99.90
8736;DHT22;4404;49.308;12.178;2022-09-02T02:35:39;13.80;99.90
8736;DHT22;4404;49.308;12.178;2022-09-02T02:41:42;13.60;99.90
8736;DHT22;4404;49.308;12.178;2022-09-02T02:47:44;13.50;99.90
8736;DHT22;4404;49.308;12.178;2022-09-02T02:53:48;13.50;99.90
8736;DHT22;4404;49.308;12.178;2022-09-02T02:59:50;13.50;99.90
8736;DHT22;4404;49.308;12.178;2022-09-02T03:05:53;13.50;99.90
8736;DHT22;4404;49.308;12.178;2022-09-02T03:11:57;13.50;99.90
8736;DHT22;4404;49.308;12.178;2022-09-02T03:17:59;13.40;99.90
8736;DHT22;4404;49.308;12.178;2022-09-02T03:24:02;13.30;99.90
8736;DHT22;4404;49.308;12.178;2022-09-02T03:30:08;13.30;99.90
8736;DHT22;4404;49.308;12.178;2022-09-02T03:36:20;13.20;99.90
8736;DHT22;4404;49.308;12.178;2022-09-02T03:42:23;13.20;99.90
8736;DHT22;4404;49.308;12.178;2022-09-02T03:48:27;13.20;99.90
8736;DHT22;4404;49.308;12.178;2022-09-02T03:54:30;13.20;99.90
8736;DHT22;4404;49.308;12.178;2022-09-02T04:00:32;13.20;99.90
8736;DHT22;4404;49.308;12.178;2022-09-02T04:06:36;13.20;99.90
8736;DHT22;4404;49.308;12.178;2022-09-02T04:12:39;13.20;99.90
8736;DHT22;4404;49.308;12.178;2022-09-02T04:18:41;13.10;99.90
8736;DHT22;4404;49.308;12.178;2022-09-02T04:24:45;13.10;99.90
8736;DHT22;4404;49.308;12.178;2022-09-02T04:30:47;13.10;99.90
8736;DHT22;4404;49.308;12.178;2022-09-02T04:36:50;13.10;99.90
8736;DHT22;4404;49.308;12.178;2022-09-02T04:42:54;13.10;99.90
8736;DHT22;4404;49.308;12.178;2022-09-02T04:48:56;13.00;99.90
8736;DHT22;4404;49.308;12.178;2022-09-02T04:54:58;13.00;99.90
8736;DHT22;4404;49.308;12.178;2022-09-02T05:01:06;12.90;99.90
8736;DHT22;4404;49.308;12.178;2022-09-02T05:07:09;12.80;99.90
8736;DHT22;4404;49.308;12.178;2022-09-02T05:13:11;12.80;99.90
8736;DHT22;4404;49.308;12.178;2022-09-02T05:19:15;12.90;99.90
8736;DHT22;4404;49.308;12.178;2022-09-02T05:25:21;12.90;99.90
8736;DHT22;4404;49.308;12.178;2022-09-02T05:31:23;12.80;99.90
8736;DHT22;4404;49.308;12.178;2022-09-02T05:37:28;12.90;99.90
8736;DHT22;4404;49.308;12.178;2022-09-02T05:43:30;13.00;99.90
8736;DHT22;4404;49.308;12.178;2022-09-02T05:49:33;13.00;99.90
8736;DHT22;4404;49.308;12.178;2022-09-02T05:55:36;13.00;99.90
8736;DHT22;4404;49.308;12.178;2022-09-02T06:01:39;13.10;99.90
8736;DHT22;4404;49.308;12.178;2022-09-02T06:07:42;13.10;99.90
8736;DHT22;4404;49.308;12.178;2022-09-02T06:13:45;13.20;99.90
8736;DHT22;4404;49.308;12.178;2022-09-02T06:19:49;13.30;99.90
8736;DHT22;4404;49.308;12.178;2022-09-02T06:25:51;13.50;99.90
8736;DHT22;4404;49.308;12.178;2022-09-02T06:31:55;13.70;99.90
8736;DHT22;4404;49.308;12.178;2022-09-02T06:37:58;13.80;99.90
8736;DHT22;4404;49.308;12.178;2022-09-02T06:44:03;14.10;99.90
8736;DHT22;4404;49.308;12.178;2022-09-02T06:50:08;14.30;99.90
8736;DHT22;4404;49.308;12.178;2022-09-02T06:56:12;14.30;99.90
8736;DHT22;4404;49.308;12.178;2022-09-02T07:02:14;14.50;99.90
8736;DHT22;4404;49.308;12.178;2022-09-02T07:08:18;14.60;99.90
8736;DHT22;4404;49.308;12.178;2022-09-02T07:14:20;14.70;99.90
8736;DHT22;4404;49.308;12.178;2022-09-02T07:20:24;14.90;99.90
8736;DHT22;4404;49.308;12.178;2022-09-02T07:26:29;14.90;99.90
8736;DHT22;4404;49.308;12.178;2022-09-02T07:32:31;15.20;99.90
8736;DHT22;4404;49.308;12.178;2022-09-02T07:38:33;15.30;99.90
8736;DHT22;4404;49.308;12.178;2022-09-02T07:44:38;15.40;99.90
8736;DHT22;4404;49.308;12.178;2022-09-02T07:50:41;15.50;99.90
8736;DHT22;4404;49.308;12.178;2022-09-02T07:56:43;15.60;99.90
8736;DHT22;4404;49.308;12.178;2022-09-02T08:02:47;15.80;99.90
8736;DHT22;4404;49.308;12.178;2022-09-02T08:08:50;16.00;99.90
8736;DHT22;4404;49.308;12.178;2022-09-02T08:14:52;16.20;99.90
8736;DHT22;4404;49.308;12.178;2022-09-02T08:20:59;16.40;99.90
8736;DHT22;4404;49.308;12.178;2022-09-02T08:27:02;16.70;99.90
8736;DHT22;4404;49.308;12.178;2022-09-02T08:33:04;17.10;98.80
8736;DHT22;4404;49.308;12.178;2022-09-02T08:39:10;17.50;97.20
8736;DHT22;4404;49.308;12.178;2022-09-02T08:45:19;17.80;96.80
8736;DHT22;4404;49.308;12.178;2022-09-02T08:51:29;18.30;96.20
8736;DHT22;4404;49.308;12.178;2022-09-02T08:57:35;18.70;94.00
8736;DHT22;4404;49.308;12.178;2022-09-02T09:03:45;19.20;92.50
8736;DHT22;4404;49.308;12.178;2022-09-02T09:10:11;19.60;91.70
8736;DHT22;4404;49.308;12.178;2022-09-02T09:16:25;19.70;91.10
8736;DHT22;4404;49.308;12.178;2022-09-02T09:22:33;20.00;88.30
8736;DHT22;4404;49.308;12.178;2022-09-02T09:28:43;20.30;90.00
8736;DHT22;4404;49.308;12.178;2022-09-02T09:35:00;20.60;88.20
8736;DHT22;4404;49.308;12.178;2022-09-02T09:41:17;20.70;85.30
8736;DHT22;4404;49.308;12.178;2022-09-02T09:47:22;20.80;86.00
8736;DHT22;4404;49.308;12.178;2022-09-02T09:53:29;20.80;84.00
8736;DHT22;4404;49.308;12.178;2022-09-02T09:59:40;20.70;82.40
8736;DHT22;4404;49.308;12.178;2022-09-02T10:05:45;20.60;79.50
8736;DHT22;4404;49.308;12.178;2022-09-02T10:11:55;20.90;76.20
8736;DHT22;4404;49.308;12.178;2022-09-02T10:18:06;21.30;80.00
8736;DHT22;4404;49.308;12.178;2022-09-02T10:24:31;21.60;73.20
8736;DHT22;4404;49.308;12.178;2022-09-02T10:30:52;21.90;75.30
8736;DHT22;4404;49.308;12.178;2022-09-02T10:37:11;22.00;73.70
8736;DHT22;4404;49.308;12.178;2022-09-02T10:43:26;22.30;73.30
8736;DHT22;4404;49.308;12.178;2022-09-02T10:49:47;22.50;71.60
8736;DHT22;4404;49.308;12.178;2022-09-02T10:56:00;22.60;71.70
8736;DHT22;4404;49.308;12.178;2022-09-02T11:02:09;22.70;71.10
8736;DHT22;4404;49.308;12.178;2022-09-02T11:08:20;22.70;68.70
8736;DHT22;4404;49.308;12.178;2022-09-02T11:14:27;22.60;66.80
8736;DHT22;4404;49.308;12.178;2022-09-02T11:20:39;22.20;65.80
8736;DHT22;4404;49.308;12.178;2022-09-02T11:26:55;21.90;69.10
8736;DHT22;4404;49.308;12.178;2022-09-02T11:33:09;22.00;67.40
8736;DHT22;4404;49.308;12.178;2022-09-02T11:39:30;22.20;65.60
8736;DHT22;4404;49.308;12.178;2022-09-02T11:45:57;22.50;64.10
8736;DHT22;4404;49.308;12.178;2022-09-02T11:52:25;22.50;62.30
8736;DHT22;4404;49.308;12.178;2022-09-02T11:58:34;22.50;62.20
8736;DHT22;4404;49.308;12.178;2022-09-02T12:04:39;22.50;64.60
8736;DHT22;4404;49.308;12.178;2022-09-02T12:10:59;22.40;66.80
8736;DHT22;4404;49.308;12.178;2022-09-02T12:17:05;22.20;67.60
8736;DHT22;4404;49.308;12.178;2022-09-02T12:31:10;22.70;65.10
8736;DHT22;4404;49.308;12.178;2022-09-02T12:44:21;23.20;62.20
8736;DHT22;4404;49.308;12.178;2022-09-02T12:50:29;23.40;65.00
8736;DHT22;4404;49.308;12.178;2022-09-02T12:56:35;23.30;63.30
8736;DHT22;4404;49.308;12.178;2022-09-02T13:02:47;23.40;66.50
8736;DHT22;4404;49.308;12.178;2022-09-02T13:16:12;23.70;63.20
8736;DHT22;4404;49.308;12.178;2022-09-02T13:22:39;23.70;61.00
8736;DHT22;4404;49.308;12.178;2022-09-02T13:36:04;24.00;59.40
8736;DHT22;4404;49.308;12.178;2022-09-02T13:42:17;24.10;58.30
8736;DHT22;4404;49.308;12.178;2022-09-02T13:48:22;24.10;59.20
8736;DHT22;4404;49.308;12.178;2022-09-02T13:54:32;24.10;59.30
8736;DHT22;4404;49.308;12.178;2022-09-02T14:00:38;24.20;60.10
8736;DHT22;4404;49.308;12.178;2022-09-02T14:06:45;24.40;61.10
8736;DHT22;4404;49.308;12.178;2022-09-02T14:12:48;24.40;58.50
8736;DHT22;4404;49.308;12.178;2022-09-02T14:19:10;24.40;60.60
8736;DHT22;4404;49.308;12.178;2022-09-02T14:25:24;24.40;59.90
8736;DHT22;4404;49.308;12.178;2022-09-02T14:31:28;24.40;61.10
8736;DHT22;4404;49.308;12.178;2022-09-02T14:37:47;24.50;57.80
8736;DHT22;4404;49.308;12.178;2022-09-02T14:43:57;24.50;58.60
8736;DHT22;4404;49.308;12.178;2022-09-02T14:50:01;24.40;58.20
8736;DHT22;4404;49.308;12.178;2022-09-02T14:56:05;24.50;58.60
8736;DHT22;4404;49.308;12.178;2022-09-02T15:02:23;24.50;59.90
8736;DHT22;4404;49.308;12.178;2022-09-02T15:08:31;24.50;59.80
8736;DHT22;4404;49.308;12.178;2022-09-02T15:14:35;24.50;59.80
8736;DHT22;4404;49.308;12.178;2022-09-02T15:20:38;24.30;60.30
8736;DHT22;4404;49.308;12.178;2022-09-02T15:26:40;24.10;59.20
8736;DHT22;4404;49.308;12.178;2022-09-02T15:32:44;24.00;59.80
8736;DHT22;4404;49.308;12.178;2022-09-02T15:38:46;24.00;59.40
8736;DHT22;4404;49.308;12.178;2022-09-02T15:44:49;24.00;59.10
8736;DHT22;4404;49.308;12.178;2022-09-02T15:51:09;24.00;60.30
8736;DHT22;4404;49.308;12.178;2022-09-02T15:57:12;24.00;61.80
8736;DHT22;4404;49.308;12.178;2022-09-02T16:03:14;23.80;61.60
8736;DHT22;4404;49.308;12.178;2022-09-02T16:09:18;23.70;62.90
8736;DHT22;4404;49.308;12.178;2022-09-02T16:15:20;23.60;60.40
8736;DHT22;4404;49.308;12.178;2022-09-02T16:21:23;23.60;62.30
8736;DHT22;4404;49.308;12.178;2022-09-02T16:27:27;23.50;62.00
8736;DHT22;4404;49.308;12.178;2022-09-02T16:33:51;23.30;60.60
8736;DHT22;4404;49.308;12.178;2022-09-02T16:39:54;23.10;61.00
8736;DHT22;4404;49.308;12.178;2022-09-02T16:45:59;22.90;59.80
8736;DHT22;4404;49.308;12.178;2022-09-02T16:52:03;22.60;62.50
8736;DHT22;4404;49.308;12.178;2022-09-02T16:58:06;22.40;64.00
8736;DHT22;4404;49.308;12.178;2022-09-02T17:04:11;22.20;67.20
8736;DHT22;4404;49.308;12.178;2022-09-02T17:10:14;22.00;67.80
8736;DHT22;4404;49.308;12.178;2022-09-02T17:16:18;21.70;64.80
8736;DHT22;4404;49.308;12.178;2022-09-02T17:22:24;22.70;70.10
8736;DHT22;4404;49.308;12.178;2022-09-02T17:28:26;21.50;69.50
8736;DHT22;4404;49.308;12.178;2022-09-02T17:34:29;21.40;67.90
8736;DHT22;4404;49.308;12.178;2022-09-02T17:40:34;21.20;70.60
8736;DHT22;4404;49.308;12.178;2022-09-02T17:46:54;20.80;71.60
8736;DHT22;4404;49.308;12.178;2022-09-02T17:52:57;20.40;72.60
8736;DHT22;4404;49.308;12.178;2022-09-02T17:59:15;20.00;75.80
8736;DHT22;4404;49.308;12.178;2022-09-02T18:05:24;19.80;77.30
8736;DHT22;4404;49.308;12.178;2022-09-02T18:11:29;19.60;78.20
8736;DHT22;4404;49.308;12.178;2022-09-02T18:17:36;19.30;80.00
8736;DHT22;4404;49.308;12.178;2022-09-02T18:23:52;19.10;81.00
8736;DHT22;4404;49.308;12.178;2022-09-02T18:30:03;18.90;82.80
8736;DHT22;4404;49.308;12.178;2022-09-02T18:36:17;18.70;83.10
8736;DHT22;4404;49.308;12.178;2022-09-02T18:42:34;18.60;84.10
8736;DHT22;4404;49.308;12.178;2022-09-02T18:48:42;18.50;84.20
8736;DHT22;4404;49.308;12.178;2022-09-02T18:54:49;18.50;85.60
8736;DHT22;4404;49.308;12.178;2022-09-02T19:00:56;18.40;85.10
8736;DHT22;4404;49.308;12.178;2022-09-02T19:06:59;18.40;85.70
8736;DHT22;4404;49.308;12.178;2022-09-02T19:13:17;18.40;86.50
8736;DHT22;4404;49.308;12.178;2022-09-02T19:19:20;18.40;87.00
8736;DHT22;4404;49.308;12.178;2022-09-02T19:25:24;18.30;86.10
8736;DHT22;4404;49.308;12.178;2022-09-02T19:31:30;18.30;86.70
8736;DHT22;4404;49.308;12.178;2022-09-02T19:37:32;18.00;88.50
8736;DHT22;4404;49.308;12.178;2022-09-02T19:43:36;17.20;86.90
8736;DHT22;4404;49.308;12.178;2022-09-02T19:49:41;17.90;86.90
8736;DHT22;4404;49.308;12.178;2022-09-02T20:01:48;17.80;88.70
8736;DHT22;4404;49.308;12.178;2022-09-02T20:07:52;17.60;89.90
8736;DHT22;4404;49.308;12.178;2022-09-02T20:13:57;17.50;89.10
8736;DHT22;4404;49.308;12.178;2022-09-02T20:20:04;17.30;90.30
8736;DHT22;4404;49.308;12.178;2022-09-02T20:26:21;17.30;90.50
8736;DHT22;4404;49.308;12.178;2022-09-02T20:32:39;17.20;90.30
8736;DHT22;4404;49.308;12.178;2022-09-02T20:38:59;17.10;90.30
8736;DHT22;4404;49.308;12.178;2022-09-02T20:45:12;17.10;90.60
8736;DHT22;4404;49.308;12.178;2022-09-02T20:51:21;17.00;90.90
8736;DHT22;4404;49.308;12.178;2022-09-02T20:57:36;17.00;90.70
8736;DHT22;4404;49.308;12.178;2022-09-02T21:03:49;16.80;91.60
8736;DHT22;4404;49.308;12.178;2022-09-02T21:09:58;16.60;91.70
8736;DHT22;4404;49.308;12.178;2022-09-02T21:16:11;16.60;91.70
8736;DHT22;4404;49.308;12.178;2022-09-02T21:22:20;16.60;91.60
8736;DHT22;4404;49.308;12.178;2022-09-02T21:28:34;16.50;91.30
8736;DHT22;4404;49.308;12.178;2022-09-02T21:34:44;16.50;91.80
8736;DHT22;4404;49.308;12.178;2022-09-02T21:41:04;16.40;91.30
8736;DHT22;4404;49.308;12.178;2022-09-02T21:47:18;16.30;91.70
8736;DHT22;4404;49.308;12.178;2022-09-02T21:53:37;16.40;92.10
8736;DHT22;4404;49.308;12.178;2022-09-02T21:59:58;16.20;91.70
8736;DHT22;4404;49.308;12.178;2022-09-02T22:06:05;16.20;91.20
8736;DHT22;4404;49.308;12.178;2022-09-02T22:12:12;16.20;90.70
8736;DHT22;4404;49.308;12.178;2022-09-02T22:18:22;16.20;90.40
8736;DHT22;4404;49.308;12.178;2022-09-02T22:24:30;16.30;90.60
8736;DHT22;4404;49.308;12.178;2022-09-02T22:30:40;16.20;90.70
8736;DHT22;4404;49.308;12.178;2022-09-02T22:36:53;16.20;90.20
8736;DHT22;4404;49.308;12.178;2022-09-02T22:43:02;16.40;89.80
8736;DHT22;4404;49.308;12.178;2022-09-02T22:49:09;16.50;89.70
8736;DHT22;4404;49.308;12.178;2022-09-02T22:55:56;16.50;88.40
8736;DHT22;4404;49.308;12.178;2022-09-02T23:02:07;16.60;89.20
8736;DHT22;4404;49.308;12.178;2022-09-02T23:08:16;16.60;89.00
8736;DHT22;4404;49.308;12.178;2022-09-02T23:14:29;16.50;89.80
8736;DHT22;4404;49.308;12.178;2022-09-02T23:20:40;16.50;89.70
8736;DHT22;4404;49.308;12.178;2022-09-02T23:26:53;16.40;90.00
8736;DHT22;4404;49.308;12.178;2022-09-02T23:33:10;16.30;90.30
8736;DHT22;4404;49.308;12.178;2022-09-02T23:39:29;16.20;90.40
8736;DHT22;4404;49.308;12.178;2022-09-02T23:45:38;16.20;90.70
8736;DHT22;4404;49.308;12.178;2022-09-02T23:51:48;16.10;91.00
8736;DHT22;4404;49.308;12.178;2022-09-02T23:58:14;16.00;91.10
